Indiaroba, Brazil
Current Conditions -  °F | °C
As of 5:00 AM on Saturday 25 Oct 2014 (Local Time) from SBAR Reporting Station
Light Rain Light Rain  
Wind Chill: 73°   Ceiling: 900
Heat Index: 73°   Visibility: 2.1mi
Dew Point: 70°   Wind: 6mph
Humidity: 88%   Direction: 240°WSW
Pressure: 29.91"   Gusts: NA
Location:  11.52°S, 37.51°W
Report Text: SBAR 250800Z 24005KT 3500 -RA BKN009 BKN070 23/21 Q1013
Loading
Personal Weather Stations






























Interactive Weather Map
Tropical Storm Tracking
New forecast layout! Learn more

10-Day Weather Forecast

Advertisements
Track Severe Weather on mobile